Jasper, GA

8:39 PM EST en Marzo 06, 2015 (GMT -0500)
Jerusalem | Change Station
CLOSE
Current Station
Estación meteorológica personal
Location: Jasper, GA
Altura: 1247 ft
Estaciones meteorológicas cercanas

Alt 1247 ft 34.44 °N, 84.58 °W | Updated 17 seconds ago

Despejado
Despejado
32.6 ° F
Sensación térmica 33 ° F
N
0.0
Viento Variable Viento desde NE
Gusts 2.0 mph

Hoy
Alta -- | Baja -- ° F
--% Posibilidad de precipitaciones
Ayer
Alta -- | Baja -- ° F
Precip. -- pul
7:00 AM 6:38 PM
Luna llena, 98% visible
Presión 30.41 pul
Visibilidad 10.0 Millas
Nubes Despejado
Vientos helados 33 ° F
Punto de rocío 24 ° F
Humedad 68%
Precipitaciones pul
Espesor de la nieve No disponible.
UV 0 de una escala de 12
Polen 7.40 de una escala de 12
Calidad del aire No disponible.
Flu Activity No disponible.
METAR KCNI 070115Z AUTO 00000KT 10SM CLR 03/M07 A3041 RMK AO2

More Conditions Fewer Conditions

Presión 30.41 pul
Visibilidad 10.0 Millas
Nubes Despejado
Vientos helados 33 ° F
Punto de rocío 24 ° F
Humedad 68%
Precipitaciones pul
Espesor de la nieve No disponible.
UV 0 de una escala de 12
Polen 7.40 de una escala de 12
Calidad del aire No disponible.
Flu Activity No disponible.
METAR KCNI 070115Z AUTO 00000KT 10SM CLR 03/M07 A3041 RMK AO2

More Conditions Fewer Conditions

10-Day Weather Forecast

Almanac

Astronomía

Mar. 06, 2015 Salida Puesta
Hora real
Crepúsculo civil
Crepúsculo náutico
Crepúsculo astronómico
Luna
Horas de luz
Horas de luz
Tomorrow will be .
, % of the Moon is Illuminated

Extremos de hoy

Máximos del estado Bajos del estado

Community

WunderPhotos

Upload Photos

1,803,491 ¡fotos cargadas!

WunderBlogs® & News

Nearby

Calidad del aire

  Calidad del aire Índice AQ Contaminante
Not available.

Grosos de nieve

Estación Profundido Altura

Actividad de terremotos

Ciudad Distance Mag. Tiempo y dato
Magnitud mínima muestra es 2,5.

Temperaturas de aguas costeras

Lugar Temperatura

Estaciones meteorológicas cercanas